Time;durP1;ratioP1;P1;durP2;ratioP2;P2;SDS_P1;SDS_P2;PMS_P1;PMS_P2;Temp;Humidity;BMP_temperature;BMP_pressure;BME280_temperature;BME280_humidity;BME280_pressure;Samples;Min_cycle;Max_cycle;Signal;HPM_P1;HPM_P2
2021/06/23 00:02:19;;;;;;;7.67;2.33;;;18.80;99.90;;;;;;5104971;28;20442;-69
2021/06/23 00:04:46;;;;;;;3.10;2.70;;;18.90;99.90;;;;;;5113966;28;20957;-70
2021/06/23 00:07:13;;;;;;;3.23;2.40;;;18.90;99.90;;;;;;5099852;28;21003;-69
2021/06/23 00:09:42;;;;;;;2.73;2.20;;;18.90;99.90;;;;;;5093429;28;20440;-69
2021/06/23 00:12:15;;;;;;;4.27;2.50;;;18.90;99.90;;;;;;5105377;28;20465;-69
2021/06/23 00:14:42;;;;;;;3.10;2.70;;;18.90;99.90;;;;;;5114092;28;20494;-69
2021/06/23 00:17:09;;;;;;;4.70;2.57;;;18.90;99.90;;;;;;5100335;28;20447;-69
2021/06/23 00:19:36;;;;;;;4.37;2.40;;;18.90;99.90;;;;;;5098633;28;20430;-69
2021/06/23 00:22:03;;;;;;;2.40;1.90;;;18.90;99.90;;;;;;5113702;28;20464;-69
2021/06/23 00:24:30;;;;;;;3.73;2.30;;;18.90;99.90;;;;;;5108835;28;21005;-69
2021/06/23 00:26:59;;;;;;;4.03;2.43;;;19.00;99.90;;;;;;5083319;28;20444;-70
2021/06/23 00:29:26;;;;;;;3.43;2.07;;;18.90;99.70;;;;;;5074272;28;20468;-70
2021/06/23 00:31:53;;;;;;;5.57;2.90;;;18.90;99.70;;;;;;5089973;28;20467;-69
2021/06/23 00:34:22;;;;;;;3.40;2.67;;;18.90;99.40;;;;;;5073931;28;20459;-69
2021/06/23 00:36:49;;;;;;;2.97;2.40;;;18.80;99.70;;;;;;5097128;28;20470;-69
2021/06/23 00:39:15;;;;;;;3.23;2.23;;;18.80;99.90;;;;;;5092858;28;20438;-69
2021/06/23 00:41:42;;;;;;;2.67;2.20;;;18.70;99.90;;;;;;5093433;28;20523;-69
2021/06/23 00:44:12;;;;;;;8.60;2.80;;;18.70;99.90;;;;;;5092859;28;20514;-69
2021/06/23 00:46:42;;;;;;;3.43;2.30;;;18.70;99.90;;;;;;5092595;28;20848;-69
2021/06/23 00:49:09;;;;;;;2.93;2.00;;;18.80;99.90;;;;;;5093383;28;20508;-69
2021/06/23 00:51:36;;;;;;;4.50;3.03;;;18.70;99.70;;;;;;5093311;28;20918;-69
2021/06/23 00:54:10;;;;;;;2.93;2.60;;;18.60;99.90;;;;;;5093265;28;20798;-69
2021/06/23 00:56:37;;;;;;;3.17;2.53;;;18.60;99.90;;;;;;5093416;28;20434;-69
2021/06/23 00:59:05;;;;;;;4.63;3.03;;;18.60;99.90;;;;;;5092791;28;20917;-69
2021/06/23 01:01:38;;;;;;;3.90;2.03;;;18.60;99.90;;;;;;5093387;28;20430;-69
2021/06/23 01:04:06;;;;;;;4.17;2.80;;;18.60;99.90;;;;;;5093316;28;20529;-69
2021/06/23 01:06:34;;;;;;;3.00;2.23;;;18.60;99.90;;;;;;5093037;28;20976;-69
2021/06/23 01:09:03;;;;;;;3.43;2.73;;;18.60;99.90;;;;;;5092738;28;20838;-69
2021/06/23 01:11:32;;;;;;;3.10;2.17;;;18.60;99.90;;;;;;5093320;28;20519;-69
2021/06/23 01:14:03;;;;;;;3.53;2.10;;;18.60;99.90;;;;;;5093182;28;20808;-70
2021/06/23 01:16:34;;;;;;;3.83;2.33;;;18.60;99.90;;;;;;5092842;28;20426;-70
2021/06/23 01:19:07;;;;;;;4.33;2.37;;;18.50;99.90;;;;;;5093108;28;20518;-69
2021/06/23 01:21:33;;;;;;;4.13;2.00;;;18.50;99.90;;;;;;5092781;28;20534;-70
2021/06/23 01:24:02;;;;;;;3.20;2.60;;;18.60;99.90;;;;;;5092951;28;20503;-69
2021/06/23 01:26:29;;;;;;;4.40;3.10;;;18.60;99.90;;;;;;5092915;28;20427;-73
2021/06/23 01:28:58;;;;;;;4.63;3.73;;;18.60;99.90;;;;;;5092771;28;20514;-69
2021/06/23 01:31:25;;;;;;;4.67;3.30;;;18.70;99.90;;;;;;5092800;28;20497;-70
2021/06/23 01:33:57;;;;;;;3.40;2.53;;;18.60;99.90;;;;;;5092609;28;20557;-69
2021/06/23 01:36:24;;;;;;;4.10;2.17;;;18.60;99.90;;;;;;5093273;28;20976;-69
2021/06/23 01:38:50;;;;;;;3.50;1.97;;;18.70;99.90;;;;;;5092911;28;20472;-69
2021/06/23 01:41:19;;;;;;;4.13;2.27;;;18.70;99.90;;;;;;5092648;28;20514;-69
2021/06/23 01:43:48;;;;;;;3.70;2.30;;;18.70;99.90;;;;;;5092836;28;20459;-69
2021/06/23 01:46:18;;;;;;;2.80;2.10;;;18.70;99.90;;;;;;5092186;28;20514;-69
2021/06/23 01:48:45;;;;;;;3.13;2.80;;;18.60;99.90;;;;;;5092636;28;20518;-69
2021/06/23 01:51:16;;;;;;;2.80;1.83;;;18.70;99.90;;;;;;5092446;28;20472;-69
2021/06/23 01:53:43;;;;;;;2.90;2.20;;;18.70;99.90;;;;;;5092431;28;20566;-69
2021/06/23 01:56:10;;;;;;;2.87;2.57;;;18.60;99.90;;;;;;5092906;28;20510;-69
2021/06/23 01:58:44;;;;;;;3.00;2.33;;;18.70;99.90;;;;;;5096878;28;20522;-69
2021/06/23 02:01:17;;;;;;;2.67;1.77;;;18.70;99.90;;;;;;5096634;28;20505;-69
2021/06/23 02:04:05;;;;;;;4.37;2.40;;;18.60;99.90;;;;;;5096483;28;20523;-69
2021/06/23 02:06:54;;;;;;;2.37;1.70;;;18.60;99.40;;;;;;5096318;28;20419;-69
2021/06/23 02:09:49;;;;;;;3.10;2.30;;;18.60;99.70;;;;;;5096457;28;20492;-69
2021/06/23 02:12:32;;;;;;;2.87;2.27;;;18.60;99.90;;;;;;5096352;28;20459;-69
2021/06/23 02:15:01;;;;;;;3.87;2.70;;;18.70;99.90;;;;;;5096441;28;20557;-70
2021/06/23 02:17:31;;;;;;;3.13;2.33;;;18.60;99.90;;;;;;5096227;28;20514;-69
2021/06/23 02:20:02;;;;;;;5.30;2.23;;;18.60;99.90;;;;;;5095968;28;20522;-69
2021/06/23 02:22:30;;;;;;;3.70;2.47;;;18.60;99.90;;;;;;5096217;28;20767;-69
2021/06/23 02:25:07;;;;;;;3.47;2.30;;;18.60;99.90;;;;;;5096041;28;20518;-70
2021/06/23 02:27:37;;;;;;;2.87;2.10;;;18.60;99.90;;;;;;5096083;28;20505;-69
2021/06/23 02:30:09;;;;;;;7.30;2.97;;;18.50;99.90;;;;;;5095957;28;20455;-70
2021/06/23 02:32:41;;;;;;;5.00;2.60;;;18.50;99.90;;;;;;5094602;28;20526;-69
2021/06/23 02:35:09;;;;;;;3.90;2.10;;;18.50;99.90;;;;;;5095928;28;20423;-69
2021/06/23 02:37:37;;;;;;;3.67;2.67;;;18.40;99.90;;;;;;5096090;28;20431;-69
2021/06/23 02:40:06;;;;;;;4.77;3.00;;;18.40;99.90;;;;;;5095647;28;20434;-70
2021/06/23 02:42:36;;;;;;;3.27;2.67;;;18.30;99.90;;;;;;5095418;28;20474;-69
2021/06/23 02:45:09;;;;;;;3.83;2.87;;;18.30;99.90;;;;;;5095846;28;20431;-69
2021/06/23 02:47:36;;;;;;;4.57;2.50;;;18.30;99.90;;;;;;5095287;28;20506;-70
2021/06/23 02:50:03;;;;;;;3.30;3.00;;;18.40;99.90;;;;;;5095384;28;20514;-69
2021/06/23 02:52:33;;;;;;;4.70;2.37;;;18.40;99.90;;;;;;5095537;28;20431;-70
2021/06/23 02:55:01;;;;;;;3.53;2.53;;;18.40;99.90;;;;;;5095359;28;20427;-70
2021/06/23 02:57:30;;;;;;;6.43;3.23;;;18.40;99.90;;;;;;5095894;28;20514;-69
2021/06/23 02:59:59;;;;;;;3.50;2.87;;;18.40;99.90;;;;;;5095311;28;20504;-69
2021/06/23 03:02:30;;;;;;;3.40;2.80;;;18.40;99.90;;;;;;5095560;28;20518;-69
2021/06/23 03:05:01;;;;;;;5.23;2.87;;;18.40;99.90;;;;;;5095617;28;20874;-70
2021/06/23 03:07:32;;;;;;;3.30;2.70;;;18.30;99.90;;;;;;5095402;28;20522;-69
2021/06/23 03:10:09;;;;;;;2.80;2.50;;;18.30;99.90;;;;;;5094714;28;20489;-69
2021/06/23 03:12:38;;;;;;;3.17;2.07;;;18.30;99.90;;;;;;5095153;28;20517;-69
2021/06/23 03:15:07;;;;;;;4.40;2.40;;;18.30;99.90;;;;;;5094802;28;20455;-69
2021/06/23 03:17:36;;;;;;;8.43;2.60;;;18.30;99.90;;;;;;5095081;28;20515;-69
2021/06/23 03:20:06;;;;;;;4.60;2.73;;;18.30;99.90;;;;;;5095192;28;20763;-70
2021/06/23 03:22:32;;;;;;;3.40;2.40;;;18.30;99.90;;;;;;5095223;28;20507;-69
2021/06/23 03:24:59;;;;;;;4.63;2.97;;;18.30;99.90;;;;;;5095046;28;20521;-69
2021/06/23 03:27:27;;;;;;;3.53;2.17;;;18.40;99.90;;;;;;5094997;28;20517;-69
2021/06/23 03:29:54;;;;;;;6.80;2.60;;;18.40;99.90;;;;;;5094831;28;20550;-70
2021/06/23 03:32:23;;;;;;;5.33;2.87;;;18.40;99.90;;;;;;5094861;28;20825;-69
2021/06/23 03:34:54;;;;;;;3.20;2.57;;;18.30;99.90;;;;;;5094481;28;20557;-69
2021/06/23 03:37:21;;;;;;;7.30;3.80;;;18.30;99.90;;;;;;5094584;28;20466;-70
2021/06/23 03:39:48;;;;;;;4.17;2.70;;;18.40;99.90;;;;;;5094545;28;20431;-69
2021/06/23 03:42:26;;;;;;;4.97;3.20;;;18.40;99.90;;;;;;5094583;28;20921;-70
2021/06/23 03:44:53;;;;;;;7.80;3.03;;;18.40;99.90;;;;;;5094778;28;20426;-69
2021/06/23 03:47:20;;;;;;;3.30;2.60;;;18.40;99.90;;;;;;5094589;28;20427;-70
2021/06/23 03:49:50;;;;;;;4.40;3.47;;;18.40;99.90;;;;;;5094369;28;20445;-69
2021/06/23 03:52:22;;;;;;;3.97;2.70;;;18.40;99.90;;;;;;5094476;28;20517;-69
2021/06/23 03:54:49;;;;;;;3.60;3.30;;;18.50;99.90;;;;;;5094181;28;20561;-69
2021/06/23 03:57:16;;;;;;;6.80;3.40;;;18.50;99.90;;;;;;5093798;28;20851;-69
2021/06/23 03:59:43;;;;;;;3.80;3.50;;;18.50;99.90;;;;;;5094149;28;20525;-69
2021/06/23 04:02:09;;;;;;;3.73;2.87;;;18.50;99.90;;;;;;5094277;28;20434;-69
2021/06/23 04:04:36;;;;;;;3.13;2.83;;;18.60;99.90;;;;;;5094342;28;20521;-70
2021/06/23 04:07:07;;;;;;;3.73;2.97;;;18.60;99.90;;;;;;5094339;28;20431;-70
2021/06/23 04:09:34;;;;;;;4.90;3.57;;;18.60;99.90;;;;;;5094349;28;20466;-70
2021/06/23 04:12:01;;;;;;;5.03;3.70;;;18.70;99.90;;;;;;5094463;28;20463;-70
2021/06/23 04:14:29;;;;;;;3.87;3.13;;;18.70;99.90;;;;;;5094229;28;20506;-69
2021/06/23 04:16:56;;;;;;;3.90;2.93;;;18.70;99.90;;;;;;5093980;28;20431;-70
2021/06/23 04:19:23;;;;;;;3.40;3.00;;;18.80;99.90;;;;;;5093805;28;20465;-69
2021/06/23 04:21:50;;;;;;;4.53;3.60;;;18.80;99.90;;;;;;5093589;28;20836;-69
2021/06/23 04:24:19;;;;;;;3.63;3.10;;;18.80;99.90;;;;;;5093871;28;20431;-70
2021/06/23 04:26:46;;;;;;;8.23;3.50;;;18.80;99.90;;;;;;5094092;28;20514;-69
2021/06/23 04:29:13;;;;;;;4.03;3.63;;;18.80;99.90;;;;;;5093938;28;20423;-69
2021/06/23 04:31:41;;;;;;;3.50;3.20;;;18.90;99.90;;;;;;5094028;28;20598;-69
2021/06/23 04:34:08;;;;;;;4.90;3.40;;;18.90;99.90;;;;;;5093697;28;20475;-69
2021/06/23 04:36:35;;;;;;;4.20;3.50;;;18.90;99.90;;;;;;5093976;28;20514;-69
2021/06/23 04:39:02;;;;;;;8.93;4.43;;;18.90;99.90;;;;;;5093769;28;20518;-69
2021/06/23 04:41:30;;;;;;;5.00;3.53;;;19.00;99.90;;;;;;5091768;28;20519;-74
2021/06/23 04:43:57;;;;;;;6.53;3.77;;;19.00;99.90;;;;;;5097500;28;20431;-72
2021/06/23 04:46:24;;;;;;;4.30;3.50;;;19.00;99.90;;;;;;5092779;28;20528;-69
2021/06/23 04:48:51;;;;;;;4.50;3.53;;;19.00;99.90;;;;;;5092740;28;21003;-70
2021/06/23 04:51:18;;;;;;;4.20;3.10;;;19.00;99.90;;;;;;5092633;28;20496;-69
2021/06/23 04:53:45;;;;;;;4.57;3.77;;;19.10;99.90;;;;;;5092965;28;20479;-69
2021/06/23 04:56:12;;;;;;;4.83;4.23;;;19.10;99.90;;;;;;5093307;28;20431;-70
2021/06/23 04:58:40;;;;;;;4.60;4.17;;;19.10;99.40;;;;;;5093077;28;20918;-70
2021/06/23 05:01:07;;;;;;;4.37;3.97;;;18.90;99.50;;;;;;5088013;28;20501;-70
2021/06/23 05:03:34;;;;;;;3.73;3.33;;;18.80;99.80;;;;;;5089435;28;20474;-72
2021/06/23 05:06:01;;;;;;;6.83;3.23;;;18.70;99.90;;;;;;5071774;28;20460;-71
2021/06/23 05:08:29;;;;;;;7.43;3.80;;;18.70;99.90;;;;;;5069897;28;21308;-74
2021/06/23 05:10:56;;;;;;;3.77;3.37;;;18.70;99.90;;;;;;5087616;28;20478;-71
2021/06/23 05:13:24;;;;;;;4.00;3.60;;;18.80;99.90;;;;;;5090347;28;20551;-71
2021/06/23 05:15:54;;;;;;;3.90;3.50;;;18.80;99.90;;;;;;5085905;28;20450;-70
2021/06/23 05:18:21;;;;;;;6.13;3.40;;;18.80;99.90;;;;;;5087345;28;20816;-70
2021/06/23 05:20:48;;;;;;;5.73;3.50;;;18.90;99.90;;;;;;5087558;28;20495;-70
2021/06/23 05:23:15;;;;;;;4.50;3.33;;;19.00;99.90;;;;;;5089025;28;20435;-70
2021/06/23 05:25:42;;;;;;;3.83;3.40;;;19.10;99.90;;;;;;5087378;28;20925;-70
2021/06/23 05:28:10;;;;;;;4.30;3.40;;;19.10;99.90;;;;;;5088087;28;20937;-70
2021/06/23 05:30:37;;;;;;;4.70;3.70;;;19.10;99.90;;;;;;5086262;28;20554;-72
2021/06/23 05:33:07;;;;;;;4.20;3.60;;;19.20;99.80;;;;;;5092082;28;20530;-70
2021/06/23 05:35:34;;;;;;;3.80;3.40;;;19.20;99.60;;;;;;5092103;28;20493;-70
2021/06/23 05:38:01;;;;;;;4.20;3.67;;;19.30;99.80;;;;;;5088705;28;20450;-70
2021/06/23 05:40:28;;;;;;;5.43;3.70;;;19.30;99.70;;;;;;5089622;28;20431;-70
2021/06/23 05:42:55;;;;;;;4.00;3.30;;;19.30;99.30;;;;;;5092944;28;20916;-70
2021/06/23 05:45:22;;;;;;;3.50;3.20;;;19.30;99.40;;;;;;5093965;28;20518;-70
2021/06/23 05:47:49;;;;;;;3.80;3.40;;;19.30;99.60;;;;;;5092632;28;20516;-70
2021/06/23 05:50:17;;;;;;;8.17;3.77;;;19.30;99.60;;;;;;5092548;28;20439;-71
2021/06/23 05:52:44;;;;;;;3.80;3.40;;;19.30;99.70;;;;;;5094951;28;20439;-70
2021/06/23 05:55:12;;;;;;;4.70;3.20;;;19.30;99.40;;;;;;5092087;28;20900;-70
2021/06/23 05:57:39;;;;;;;3.50;3.20;;;19.40;99.60;;;;;;5092816;28;20442;-71
2021/06/23 06:00:07;;;;;;;4.53;3.80;;;19.30;98.80;;;;;;5089011;28;20926;-71
2021/06/23 06:02:34;;;;;;;4.33;3.93;;;19.30;98.60;;;;;;5090160;28;20443;-72
2021/06/23 06:05:01;;;;;;;5.33;3.70;;;19.20;98.80;;;;;;5090464;28;20493;-70
2021/06/23 06:07:30;;;;;;;4.70;3.70;;;19.20;98.80;;;;;;5089000;28;20466;-71
2021/06/23 06:09:57;;;;;;;5.17;4.30;;;19.20;99.10;;;;;;5091703;28;20446;-75
2021/06/23 06:12:23;;;;;;;12.60;5.10;;;19.10;99.30;;;;;;5089086;28;20443;-70
2021/06/23 06:14:52;;;;;;;7.13;4.23;;;19.20;99.40;;;;;;5094700;28;20553;-70
2021/06/23 06:17:19;;;;;;;7.80;4.40;;;19.20;99.20;;;;;;5095265;28;20437;-70
2021/06/23 06:19:46;;;;;;;5.80;4.53;;;19.30;99.10;;;;;;5095890;28;20443;-69
2021/06/23 06:22:13;;;;;;;5.80;4.37;;;19.30;99.30;;;;;;5091290;28;20950;-69
2021/06/23 06:24:41;;;;;;;6.13;5.00;;;19.20;99.40;;;;;;5090357;28;20485;-72
2021/06/23 06:27:09;;;;;;;8.40;4.13;;;19.20;99.00;;;;;;5082684;28;20431;-70
2021/06/23 06:29:36;;;;;;;6.90;5.10;;;19.20;99.60;;;;;;5087076;28;20520;-69
2021/06/23 06:32:03;;;;;;;6.13;3.83;;;19.20;99.40;;;;;;5083230;28;20439;-72
2021/06/23 06:34:30;;;;;;;5.00;4.03;;;19.20;99.70;;;;;;5092003;28;20486;-69
2021/06/23 06:36:57;;;;;;;6.70;5.17;;;19.30;99.60;;;;;;5096646;28;20497;-69
2021/06/23 06:39:24;;;;;;;4.60;3.90;;;19.30;99.40;;;;;;5094228;28;20492;-69
2021/06/23 06:41:52;;;;;;;5.27;4.77;;;19.40;99.90;;;;;;5096051;28;20443;-69
2021/06/23 06:44:21;;;;;;;4.10;3.70;;;19.40;99.80;;;;;;5093291;28;20490;-69
2021/06/23 06:46:48;;;;;;;4.40;3.20;;;19.50;99.60;;;;;;5095130;28;20443;-70
2021/06/23 06:49:15;;;;;;;4.53;4.13;;;19.50;99.90;;;;;;5094092;28;20447;-69
2021/06/23 06:51:42;;;;;;;7.70;4.20;;;19.70;99.40;;;;;;5090383;28;20964;-69
2021/06/23 06:54:09;;;;;;;5.33;4.83;;;19.80;99.80;;;;;;5093354;28;20467;-69
2021/06/23 06:56:35;;;;;;;5.80;5.20;;;20.00;99.90;;;;;;5092547;28;20469;-69
2021/06/23 06:59:04;;;;;;;4.80;4.30;;;20.40;99.80;;;;;;5095980;28;20859;-70
2021/06/23 07:01:31;;;;;;;6.03;5.43;;;20.70;99.70;;;;;;5094643;28;20478;-70
2021/06/23 07:03:58;;;;;;;7.53;5.30;;;21.00;96.60;;;;;;5094424;28;20518;-70
2021/06/23 07:06:25;;;;;;;5.30;4.80;;;21.30;97.00;;;;;;5094198;28;20840;-70
2021/06/23 07:08:53;;;;;;;5.27;4.77;;;21.50;96.80;;;;;;5084682;28;20447;-70
2021/06/23 07:11:21;;;;;;;5.83;5.23;;;21.90;96.70;;;;;;5103713;28;20470;-70
2021/06/23 07:13:47;;;;;;;5.67;5.17;;;22.20;95.70;;;;;;5100410;28;20443;-70
2021/06/23 07:16:16;;;;;;;5.70;5.10;;;22.50;95.10;;;;;;5104398;28;20539;-71
2021/06/23 07:18:45;;;;;;;7.77;5.73;;;22.80;94.30;;;;;;5110190;28;20458;-71
2021/06/23 07:21:17;;;;;;;7.57;5.10;;;23.10;93.10;;;;;;5106842;28;20455;-71
2021/06/23 07:23:44;;;;;;;11.93;6.23;;;23.30;93.00;;;;;;5111270;28;21018;-70
2021/06/23 07:26:12;;;;;;;5.43;4.93;;;23.50;92.10;;;;;;5115177;28;20435;-70
2021/06/23 07:28:45;;;;;;;8.10;5.00;;;23.70;90.50;;;;;;5099054;28;20775;-70
2021/06/23 07:31:15;;;;;;;7.37;5.80;;;23.80;90.60;;;;;;5097784;28;20470;-71
2021/06/23 07:33:51;;;;;;;6.07;5.47;;;23.90;88.60;;;;;;5098608;28;20522;-70
2021/06/23 07:39:08;;;;;;;5.50;4.63;;;24.30;87.30;;;;;;5093800;28;20428;-70
2021/06/23 07:41:35;;;;;;;5.27;4.77;;;24.50;89.00;;;;;;5096828;28;20517;-71
2021/06/23 07:44:02;;;;;;;6.00;4.90;;;24.70;89.60;;;;;;5099978;28;20496;-70
2021/06/23 07:46:34;;;;;;;6.80;5.90;;;24.90;85.20;;;;;;5098173;28;21012;-71
2021/06/23 07:49:03;;;;;;;5.80;4.37;;;25.10;81.80;;;;;;5114720;28;20434;-70
2021/06/23 07:51:39;;;;;;;6.17;5.40;;;25.10;80.90;;;;;;5110222;28;20442;-70
2021/06/23 07:54:19;;;;;;;6.10;5.50;;;25.00;81.60;;;;;;5103779;28;20488;-70
2021/06/23 08:10:42;;;;;;;5.53;4.50;;;25.00;80.60;;;;;;5080660;28;20468;-70
2021/06/23 08:13:09;;;;;;;5.13;4.63;;;25.10;79.60;;;;;;5092297;28;20439;-74
2021/06/23 08:15:38;;;;;;;4.57;4.13;;;25.00;79.00;;;;;;5096327;28;20518;-70
2021/06/23 08:18:06;;;;;;;4.57;4.07;;;25.10;80.90;;;;;;5092563;28;20475;-71
2021/06/23 08:20:35;;;;;;;4.40;3.90;;;25.20;78.80;;;;;;5094138;28;20797;-70
2021/06/23 08:23:10;;;;;;;4.60;4.20;;;25.40;76.90;;;;;;5090351;28;20489;-71
2021/06/23 08:25:37;;;;;;;5.60;4.53;;;25.70;78.40;;;;;;5094665;28;20439;-70
2021/06/23 08:28:05;;;;;;;4.60;4.20;;;25.90;73.60;;;;;;5091992;28;20475;-71
2021/06/23 08:30:33;;;;;;;5.53;4.70;;;25.90;72.70;;;;;;5092345;28;20837;-71
2021/06/23 08:33:01;;;;;;;4.70;4.20;;;25.90;71.10;;;;;;5091329;28;20449;-72
2021/06/23 08:35:28;;;;;;;5.00;4.27;;;25.90;73.40;;;;;;5092650;28;20480;-70
2021/06/23 08:37:57;;;;;;;4.37;3.97;;;26.00;75.20;;;;;;5096756;28;20475;-71
2021/06/23 08:40:24;;;;;;;5.37;4.87;;;26.10;74.10;;;;;;5092877;28;20488;-70
2021/06/23 08:42:51;;;;;;;5.20;3.83;;;26.30;72.00;;;;;;5093262;28;20446;-71
2021/06/23 08:45:19;;;;;;;5.87;3.33;;;26.40;72.00;;;;;;5090546;28;20449;-70
2021/06/23 08:47:49;;;;;;;4.20;3.73;;;26.40;68.90;;;;;;5074242;28;20513;-70
2021/06/23 08:50:20;;;;;;;3.83;3.00;;;26.20;68.10;;;;;;5076589;28;21002;-70
2021/06/23 08:52:48;;;;;;;4.33;2.97;;;26.10;70.40;;;;;;5075929;28;20452;-70
2021/06/23 08:55:19;;;;;;;3.77;3.20;;;25.90;70.70;;;;;;5085561;28;20487;-70
2021/06/23 08:57:47;;;;;;;5.40;2.70;;;25.90;72.60;;;;;;5092151;28;20449;-71
2021/06/23 09:00:15;;;;;;;3.90;2.77;;;26.00;70.40;;;;;;5092817;28;20445;-70
2021/06/23 09:02:44;;;;;;;3.90;3.37;;;26.10;67.70;;;;;;5093927;28;20789;-71
2021/06/23 09:05:13;;;;;;;3.63;2.90;;;26.20;68.70;;;;;;5072714;28;20432;-71
2021/06/23 09:07:46;;;;;;;3.47;3.17;;;26.30;71.00;;;;;;5073924;28;20522;-70
2021/06/23 09:10:38;;;;;;;4.40;3.50;;;26.40;70.60;;;;;;5113151;28;20432;-70
2021/06/23 09:13:18;;;;;;;3.90;3.03;;;26.50;70.00;;;;;;5096136;28;20511;-71
2021/06/23 09:15:51;;;;;;;6.43;2.63;;;26.70;68.50;;;;;;5097796;28;20545;-70
2021/06/23 09:18:24;;;;;;;3.50;3.20;;;26.70;66.90;;;;;;5088679;28;20538;-71
2021/06/23 09:20:53;;;;;;;4.13;2.33;;;26.80;68.80;;;;;;5099539;28;20932;-69
2021/06/23 09:23:40;;;;;;;4.10;2.70;;;26.90;70.80;;;;;;5113151;28;20441;-69
2021/06/23 09:26:15;;;;;;;2.90;2.50;;;27.10;69.50;;;;;;5103019;28;20435;-69
2021/06/23 09:28:43;;;;;;;4.37;2.53;;;27.20;63.00;;;;;;5092782;28;20466;-69
2021/06/23 09:31:11;;;;;;;4.90;2.17;;;27.20;61.50;;;;;;5098156;28;20476;-69
2021/06/23 09:33:38;;;;;;;4.10;3.00;;;27.10;58.50;;;;;;5113128;28;20841;-69
2021/06/23 09:36:11;;;;;;;4.30;2.70;;;27.00;59.00;;;;;;5105450;28;20486;-68
2021/06/23 09:38:44;;;;;;;4.03;3.30;;;26.80;58.20;;;;;;5092899;28;20439;-69
2021/06/23 09:41:29;;;;;;;4.33;2.93;;;26.70;60.20;;;;;;5093134;28;20480;-69
2021/06/23 09:44:00;;;;;;;5.60;2.50;;;26.80;58.50;;;;;;5092123;28;20432;-69
2021/06/23 09:46:29;;;;;;;2.50;1.90;;;26.70;60.30;;;;;;5100942;28;20444;-69
2021/06/23 09:49:11;;;;;;;2.80;2.23;;;26.70;60.60;;;;;;5112885;28;20438;-69
2021/06/23 09:51:46;;;;;;;5.23;2.70;;;26.70;61.90;;;;;;5101363;28;20431;-69
2021/06/23 09:54:15;;;;;;;4.50;2.40;;;26.90;62.30;;;;;;5092274;28;20998;-69
2021/06/23 09:56:45;;;;;;;3.23;2.40;;;27.10;59.60;;;;;;5079990;28;20479;-69
2021/06/23 09:59:25;;;;;;;2.30;1.80;;;27.20;60.70;;;;;;5072267;28;20447;-69
2021/06/23 10:01:52;;;;;;;3.90;2.60;;;27.30;59.00;;;;;;5104582;28;20445;-69
2021/06/23 10:04:19;;;;;;;2.80;2.10;;;27.40;60.30;;;;;;5112712;28;20830;-69
2021/06/23 10:06:47;;;;;;;3.30;2.00;;;27.60;60.50;;;;;;5097190;28;20474;-69
2021/06/23 10:09:20;;;;;;;2.57;2.03;;;27.80;59.80;;;;;;5083957;28;20435;-69
2021/06/23 10:11:51;;;;;;;2.83;2.20;;;28.00;61.60;;;;;;5091449;28;20878;-69
2021/06/23 10:14:19;;;;;;;2.93;2.57;;;28.40;60.50;;;;;;5091231;28;20506;-70
2021/06/23 10:16:48;;;;;;;2.77;2.20;;;28.50;60.00;;;;;;5091010;28;20483;-69
2021/06/23 10:19:16;;;;;;;4.90;2.20;;;28.60;59.30;;;;;;5090606;28;20447;-69
2021/06/23 10:21:43;;;;;;;4.10;2.67;;;28.60;59.10;;;;;;5096313;28;20482;-69
2021/06/23 10:24:12;;;;;;;2.60;2.27;;;28.60;58.30;;;;;;5091695;28;20444;-69
2021/06/23 10:26:41;;;;;;;3.77;3.07;;;28.70;58.80;;;;;;5097038;28;20448;-70
2021/06/23 10:29:14;;;;;;;2.80;2.33;;;28.80;58.40;;;;;;5094363;28;20488;-69
2021/06/23 10:31:42;;;;;;;3.00;2.27;;;29.00;58.10;;;;;;5096171;28;20488;-69
2021/06/23 10:34:10;;;;;;;3.90;2.23;;;29.20;58.50;;;;;;5094207;28;20448;-69
2021/06/23 10:36:37;;;;;;;2.97;2.53;;;29.20;56.50;;;;;;5094966;28;20488;-69
2021/06/23 10:39:06;;;;;;;2.90;2.53;;;29.00;56.60;;;;;;5094163;28;20444;-69
2021/06/23 10:41:39;;;;;;;4.50;2.33;;;29.00;56.10;;;;;;5090886;28;20936;-70
2021/06/23 10:44:22;;;;;;;3.67;2.10;;;29.10;55.90;;;;;;5102920;28;20464;-69
2021/06/23 10:46:50;;;;;;;3.50;2.80;;;29.10;56.90;;;;;;5097240;28;20435;-69
2021/06/23 10:49:37;;;;;;;3.70;2.47;;;29.20;57.20;;;;;;5093866;28;20464;-70
2021/06/23 10:52:46;;;;;;;3.60;2.40;;;29.30;58.00;;;;;;5093114;28;20862;-69
2021/06/23 10:55:40;;;;;;;3.30;2.57;;;29.40;57.10;;;;;;5091311;28;20774;-69
2021/06/23 10:58:08;;;;;;;4.67;2.97;;;29.50;55.90;;;;;;5086156;28;20446;-69
2021/06/23 11:00:37;;;;;;;2.60;2.23;;;29.60;53.70;;;;;;5094234;28;20485;-69
2021/06/23 11:03:07;;;;;;;3.10;2.50;;;29.50;53.30;;;;;;5094039;28;20448;-69
2021/06/23 11:05:39;;;;;;;3.90;3.00;;;29.50;55.20;;;;;;5095277;28;20488;-70
2021/06/23 11:08:29;;;;;;;3.63;3.30;;;29.50;55.70;;;;;;5091554;28;20481;-69
2021/06/23 11:10:58;;;;;;;3.93;3.27;;;29.60;55.30;;;;;;5092660;28;20482;-69
2021/06/23 11:13:26;;;;;;;9.97;3.70;;;29.80;55.60;;;;;;5095176;28;20439;-69
2021/06/23 11:15:55;;;;;;;3.80;3.40;;;29.70;53.60;;;;;;5089232;28;20911;-69
2021/06/23 11:18:26;;;;;;;4.60;3.50;;;29.60;52.60;;;;;;5096737;28;20454;-69
2021/06/23 11:20:56;;;;;;;4.13;3.13;;;29.60;52.70;;;;;;5091056;28;20431;-72
2021/06/23 11:23:51;;;;;;;5.27;3.67;;;29.60;53.40;;;;;;5091925;28;20445;-69
2021/06/23 11:26:52;;;;;;;3.67;3.37;;;29.60;51.80;;;;;;5091208;28;20533;-69
2021/06/23 11:29:29;;;;;;;4.97;3.60;;;29.40;52.70;;;;;;5093082;28;20448;-69
2021/06/23 11:32:03;;;;;;;8.00;4.63;;;29.20;54.70;;;;;;5088373;28;20490;-69
2021/06/23 11:34:57;;;;;;;4.50;4.10;;;29.30;56.20;;;;;;5096834;28;20446;-70
2021/06/23 11:37:37;;;;;;;4.10;3.70;;;29.40;56.40;;;;;;5088551;28;20477;-69
2021/06/23 11:40:18;;;;;;;4.20;3.80;;;29.60;55.00;;;;;;5093073;28;20449;-70
2021/06/23 11:42:46;;;;;;;5.33;3.60;;;29.50;50.50;;;;;;5092362;28;20519;-69
2021/06/23 11:45:15;;;;;;;4.00;3.60;;;29.30;50.40;;;;;;5096320;28;20441;-69
2021/06/23 11:47:43;;;;;;;6.20;4.87;;;28.90;49.90;;;;;;5090923;28;20544;-69
2021/06/23 11:50:11;;;;;;;5.30;4.07;;;28.80;52.00;;;;;;5092833;28;21021;-69
2021/06/23 11:52:39;;;;;;;6.40;5.00;;;28.90;54.60;;;;;;5094258;28;20446;-70
2021/06/23 11:55:09;;;;;;;5.80;4.20;;;29.20;54.20;;;;;;5098020;28;20479;-69
2021/06/23 11:57:36;;;;;;;4.70;4.23;;;29.30;52.90;;;;;;5109451;28;20473;-69
2021/06/23 12:00:04;;;;;;;5.20;4.70;;;29.30;52.70;;;;;;5112747;28;20447;-70
2021/06/23 12:02:31;;;;;;;4.50;4.00;;;29.40;53.20;;;;;;5094242;28;20445;-69
2021/06/23 12:04:59;;;;;;;3.90;3.50;;;29.30;53.00;;;;;;5093906;28;20492;-76
2021/06/23 12:07:26;;;;;;;5.63;4.00;;;29.30;52.00;;;;;;5073737;28;20500;-69
2021/06/23 12:09:53;;;;;;;4.50;3.90;;;29.30;53.00;;;;;;5073687;28;20528;-68
2021/06/23 12:12:20;;;;;;;4.10;2.90;;;29.40;50.70;;;;;;5093811;28;20479;-69
2021/06/23 12:14:47;;;;;;;5.40;3.60;;;29.30;52.00;;;;;;5094014;28;20498;-69
2021/06/23 12:17:14;;;;;;;5.70;4.30;;;29.40;52.10;;;;;;5111071;28;20482;-69
2021/06/23 12:19:41;;;;;;;4.47;3.33;;;29.20;48.40;;;;;;5114073;28;20441;-69
2021/06/23 12:22:09;;;;;;;4.10;3.33;;;29.10;50.00;;;;;;5097146;28;20440;-69
2021/06/23 12:24:36;;;;;;;6.10;4.47;;;29.10;50.70;;;;;;5093467;28;20447;-68
2021/06/23 12:27:04;;;;;;;4.63;4.23;;;29.10;52.20;;;;;;5109305;28;20444;-69
2021/06/23 12:29:31;;;;;;;5.63;3.50;;;29.10;51.80;;;;;;5113677;28;20433;-69
2021/06/23 12:32:01;;;;;;;6.07;5.47;;;29.10;52.30;;;;;;5098868;28;20450;-69
2021/06/23 12:34:28;;;;;;;4.30;3.90;;;29.20;51.70;;;;;;5104856;28;20437;-69
2021/06/23 12:36:56;;;;;;;5.10;4.60;;;29.20;50.50;;;;;;5101965;28;20562;-68
2021/06/23 12:39:25;;;;;;;5.40;4.63;;;29.10;50.90;;;;;;5113832;28;20475;-68
2021/06/23 12:41:55;;;;;;;4.87;4.10;;;29.10;52.20;;;;;;5110605;28;20461;-69
2021/06/23 12:44:22;;;;;;;4.23;3.83;;;29.20;53.20;;;;;;5113681;28;20930;-69
2021/06/23 12:46:53;;;;;;;5.80;5.10;;;29.20;49.90;;;;;;5099817;28;20444;-69
2021/06/23 12:49:22;;;;;;;6.07;5.10;;;29.20;50.00;;;;;;5096189;28;20439;-69
2021/06/23 12:51:49;;;;;;;5.93;5.27;;;29.20;52.20;;;;;;5075386;28;20460;-69
2021/06/23 12:54:21;;;;;;;7.60;4.37;;;29.20;53.00;;;;;;5072731;28;20430;-69
2021/06/23 12:56:49;;;;;;;6.93;4.23;;;29.30;52.20;;;;;;5097681;28;20512;-68
2021/06/23 12:59:16;;;;;;;5.73;4.53;;;29.40;52.90;;;;;;5113400;28;20488;-69
2021/06/23 13:01:48;;;;;;;4.97;4.47;;;29.60;52.60;;;;;;5105729;28;20445;-69
2021/06/23 13:04:15;;;;;;;5.20;4.70;;;29.70;50.20;;;;;;5093204;28;20470;-69
2021/06/23 13:06:42;;;;;;;5.00;4.60;;;29.70;49.10;;;;;;5099107;28;20468;-69
2021/06/23 13:09:09;;;;;;;5.27;4.77;;;29.50;49.40;;;;;;5113141;28;20822;-69
2021/06/23 13:11:37;;;;;;;7.50;5.30;;;29.50;51.40;;;;;;5107892;28;20445;-69
2021/06/23 13:14:06;;;;;;;9.53;5.97;;;29.50;50.50;;;;;;5099596;28;20448;-68
2021/06/23 13:16:33;;;;;;;6.07;5.47;;;29.40;50.70;;;;;;5108699;28;20478;-69
2021/06/23 13:19:00;;;;;;;7.87;5.37;;;29.40;51.90;;;;;;5092733;28;20440;-69